Time;durP1;ratioP1;P1;durP2;ratioP2;P2;SDS_P1;SDS_P2;PMS_P1;PMS_P2;Temp;Humidity;BMP_temperature;BMP_pressure;BME280_temperature;BME280_humidity;BME280_pressure;Samples;Min_cycle;Max_cycle;Signal;HPM_P1;HPM_P2
2021/11/10 00:01:53;;;;;;;13.43;6.47;;;;;;;1.21;56.16;102608.45;1796723;79;21568;-69
2021/11/10 00:04:21;;;;;;;12.13;6.28;;;;;;;1.22;56.15;102607.47;1785347;78;21116;-69
2021/11/10 00:06:48;;;;;;;10.60;5.47;;;;;;;1.21;56.20;102608.45;1780156;80;21016;-70
2021/11/10 00:09:14;;;;;;;11.93;5.80;;;;;;;1.19;56.26;102602.52;1794499;77;21572;-70
2021/11/10 00:11:41;;;;;;;9.60;5.40;;;;;;;1.15;56.34;102614.66;1778337;78;21102;-69
2021/11/10 00:14:08;;;;;;;9.93;5.58;;;;;;;1.11;56.45;102622.47;1766141;81;20960;-70
2021/11/10 00:16:35;;;;;;;11.22;6.22;;;;;;;1.07;56.55;102630.31;1801776;78;21952;-70
2021/11/10 00:19:04;;;;;;;10.72;6.35;;;;;;;1.05;56.68;102625.67;1782285;78;21711;-70
2021/11/10 00:21:31;;;;;;;10.85;5.42;;;;;;;1.01;56.72;102625.63;1781006;78;21547;-70
2021/11/10 00:23:57;;;;;;;12.60;6.80;;;;;;;1.00;56.79;102621.34;1811426;79;20968;-70
2021/11/10 00:26:24;;;;;;;12.03;6.22;;;;;;;0.98;56.81;102621.95;1783987;78;20987;-70
2021/11/10 00:28:51;;;;;;;13.32;6.65;;;;;;;0.99;56.83;102626.73;1783502;78;21120;-69
2021/11/10 00:31:17;;;;;;;11.03;6.28;;;;;;;1.00;56.89;102634.98;1797595;78;21104;-70
2021/11/10 00:33:44;;;;;;;11.35;6.08;;;;;;;0.97;56.95;102628.70;1796391;79;21037;-70
2021/11/10 00:36:11;;;;;;;12.90;7.00;;;;;;;0.96;57.08;102635.77;1796159;79;21026;-70
2021/11/10 00:38:38;;;;;;;12.70;6.05;;;;;;;0.96;57.17;102634.45;1752398;79;21050;-70
2021/11/10 00:41:05;;;;;;;10.63;6.30;;;;;;;0.97;57.25;102630.84;1801788;78;21099;-70
2021/11/10 00:43:33;;;;;;;10.25;6.12;;;;;;;0.93;57.35;102628.98;1802488;78;21022;-68
2021/11/10 00:46:00;;;;;;;11.95;6.20;;;;;;;0.95;57.39;102635.40;1802005;79;21059;-69
2021/11/10 00:48:26;;;;;;;12.40;5.67;;;;;;;0.94;57.31;102637.70;1812492;79;21003;-68
2021/11/10 00:50:53;;;;;;;12.07;5.85;;;;;;;0.96;57.24;102640.20;1819268;78;21536;-69
2021/11/10 00:53:19;;;;;;;13.43;7.17;;;;;;;0.93;57.26;102640.81;1812461;79;21082;-68
2021/11/10 00:55:46;;;;;;;11.22;5.62;;;;;;;0.96;57.23;102642.83;1822797;78;21553;-68
2021/11/10 00:58:15;;;;;;;12.07;7.15;;;;;;;0.97;57.22;102637.41;1806288;79;21062;-69
2021/11/10 01:00:42;;;;;;;13.83;7.00;;;;;;;1.00;57.23;102642.88;1805484;79;21199;-69
2021/11/10 01:03:11;;;;;;;11.20;6.55;;;;;;;1.01;57.25;102641.91;1777571;79;21042;-69
2021/11/10 01:05:39;;;;;;;11.57;7.12;;;;;;;1.03;57.33;102645.23;1813386;77;21139;-69
2021/11/10 01:08:08;;;;;;;11.45;6.65;;;;;;;1.02;57.38;102653.62;1780157;80;20945;-69
2021/11/10 01:10:35;;;;;;;13.20;7.05;;;;;;;1.02;57.33;102650.13;1794150;78;20982;-69
2021/11/10 01:13:04;;;;;;;10.38;6.33;;;;;;;1.03;57.33;102652.64;1783700;79;20971;-69
2021/11/10 01:15:30;;;;;;;14.45;7.40;;;;;;;1.03;57.33;102650.00;1803935;79;21530;-69
2021/11/10 01:17:58;;;;;;;11.63;6.78;;;;;;;1.04;57.24;102641.13;1804638;79;21097;-69
2021/11/10 01:20:25;;;;;;;13.25;6.70;;;;;;;1.03;57.16;102636.84;1795808;78;21051;-69
2021/11/10 01:22:52;;;;;;;11.45;6.60;;;;;;;1.04;57.12;102634.55;1780520;80;21082;-69
2021/11/10 01:25:19;;;;;;;12.03;6.62;;;;;;;1.03;57.07;102638.16;1781402;78;20967;-69
2021/11/10 01:27:45;;;;;;;11.63;6.10;;;;;;;1.02;57.07;102647.50;1780700;80;21067;-69
2021/11/10 01:30:12;;;;;;;13.13;7.35;;;;;;;1.02;57.14;102664.14;1784618;78;21816;-69
2021/11/10 01:32:41;;;;;;;12.30;6.33;;;;;;;1.02;57.13;102672.04;1796242;79;21551;-69
2021/11/10 01:35:09;;;;;;;10.58;6.00;;;;;;;0.98;56.98;102677.70;1796137;79;21006;-69
2021/11/10 01:37:35;;;;;;;12.65;6.83;;;;;;;0.97;56.86;102678.20;1805035;79;20974;-69
2021/11/10 01:40:06;;;;;;;12.53;7.10;;;;;;;0.98;56.82;102686.91;1798222;79;20951;-69
2021/11/10 01:42:40;;;;;;;11.97;6.42;;;;;;;0.98;56.86;102689.55;1791572;78;21125;-70
2021/11/10 01:45:09;;;;;;;10.82;6.50;;;;;;;0.99;56.85;102687.25;1785385;78;21043;-69
2021/11/10 01:47:36;;;;;;;13.38;6.37;;;;;;;1.00;56.77;102687.62;1784559;78;21077;-68
2021/11/10 01:50:07;;;;;;;11.80;6.55;;;;;;;0.99;56.75;102684.62;1796124;78;20968;-68
2021/11/10 01:52:35;;;;;;;11.65;7.08;;;;;;;0.97;56.77;102684.77;1809541;78;21384;-68
2021/11/10 01:55:05;;;;;;;10.38;6.37;;;;;;;0.96;56.80;102683.13;1804499;78;21813;-69
2021/11/10 01:57:31;;;;;;;12.85;6.75;;;;;;;0.96;56.88;102663.87;1793037;78;21483;-69
2021/11/10 02:00:21;;;;;;;12.85;7.40;;;;;;;0.97;56.91;102663.72;1780139;80;21094;-69
2021/11/10 02:02:53;;;;;;;12.00;6.47;;;;;;;0.98;56.97;102671.13;1804037;78;20979;-69
2021/11/10 02:05:38;;;;;;;11.70;6.92;;;;;;;0.98;57.09;102679.02;1804435;79;21030;-69
2021/11/10 02:08:06;;;;;;;12.90;7.08;;;;;;;0.93;57.19;102683.41;1787986;78;21130;-69
2021/11/10 02:10:35;;;;;;;12.25;7.00;;;;;;;0.94;57.23;102670.59;1779669;80;37379;-69
2021/11/10 02:13:05;;;;;;;11.90;6.42;;;;;;;0.97;57.26;102670.30;1801281;78;21026;-70
2021/11/10 02:15:33;;;;;;;11.28;6.78;;;;;;;0.98;57.36;102669.81;1802441;79;21070;-69
2021/11/10 02:18:02;;;;;;;9.95;6.28;;;;;;;1.01;57.45;102671.67;1823882;78;21079;-69
2021/11/10 02:20:34;;;;;;;11.85;6.85;;;;;;;1.03;57.56;102665.80;1811932;79;21141;-69
2021/11/10 02:23:03;;;;;;;11.63;7.05;;;;;;;1.03;57.81;102678.95;1804068;78;21031;-69
2021/11/10 02:25:30;;;;;;;12.55;7.05;;;;;;;1.07;57.93;102693.97;1804011;79;21522;-69
2021/11/10 02:27:58;;;;;;;11.15;6.90;;;;;;;1.10;57.98;102685.80;1809286;79;21565;-70
2021/11/10 02:30:24;;;;;;;12.73;7.40;;;;;;;1.14;57.90;102680.58;1811797;79;22064;-71
2021/11/10 02:32:55;;;;;;;12.93;7.42;;;;;;;1.17;57.88;102687.70;1794393;78;21137;-70
2021/11/10 02:35:25;;;;;;;10.70;6.33;;;;;;;1.25;57.82;102692.28;1798039;79;20972;-70
2021/11/10 02:38:00;;;;;;;10.93;6.25;;;;;;;1.28;57.80;102698.55;1800430;78;21054;-70
2021/11/10 02:40:27;;;;;;;11.00;6.10;;;;;;;1.38;57.71;102698.05;1804075;79;20932;-70
2021/11/10 02:42:54;;;;;;;10.45;6.55;;;;;;;1.46;57.70;102702.59;1804284;79;21162;-70
2021/11/10 02:45:22;;;;;;;9.60;5.80;;;;;;;1.53;57.80;102698.90;1805447;78;21953;-70
2021/11/10 02:47:49;;;;;;;9.93;5.97;;;;;;;1.59;57.89;102703.09;1806335;79;20990;-70
2021/11/10 02:50:16;;;;;;;12.28;7.72;;;;;;;1.61;57.95;102699.84;1806044;77;20988;-70
2021/11/10 02:52:44;;;;;;;10.75;6.20;;;;;;;1.62;58.07;102708.58;1779847;79;21027;-70
2021/11/10 02:55:11;;;;;;;10.82;6.85;;;;;;;1.68;58.16;102716.36;1809133;78;21007;-70
2021/11/10 02:57:38;;;;;;;13.50;8.63;;;;;;;1.73;58.11;102714.14;1812284;79;21130;-70
2021/11/10 03:00:09;;;;;;;12.73;7.40;;;;;;;1.77;58.08;102701.83;1808057;78;21054;-70
2021/11/10 03:02:37;;;;;;;12.45;8.15;;;;;;;1.78;58.14;102698.73;1780271;80;20996;-70
2021/11/10 03:05:08;;;;;;;14.80;8.40;;;;;;;1.74;58.25;102696.02;1785365;78;21048;-70
2021/11/10 03:07:35;;;;;;;14.83;9.05;;;;;;;1.73;58.38;102686.47;1777931;78;21058;-70
2021/11/10 03:10:05;;;;;;;14.25;9.73;;;;;;;1.75;58.52;102702.98;1803293;78;21091;-70
2021/11/10 03:12:35;;;;;;;18.65;9.58;;;;;;;1.76;58.61;102708.58;1780234;80;21051;-70
2021/11/10 03:15:02;;;;;;;14.90;8.80;;;;;;;1.78;58.64;102707.95;1799142;78;21527;-69
2021/11/10 03:17:31;;;;;;;16.15;9.28;;;;;;;1.80;58.69;102708.63;1792975;78;21034;-69
2021/11/10 03:20:01;;;;;;;14.03;9.45;;;;;;;1.81;58.73;102722.13;1798450;78;20953;-69
2021/11/10 03:22:28;;;;;;;15.08;9.48;;;;;;;1.83;58.75;102719.70;1808742;79;21441;-69
2021/11/10 03:24:55;;;;;;;17.98;9.55;;;;;;;1.86;58.72;102714.13;1808199;78;21468;-69
2021/11/10 03:27:24;;;;;;;13.13;8.83;;;;;;;1.84;58.73;102723.16;1806431;79;20971;-69
2021/11/10 03:29:50;;;;;;;15.08;9.93;;;;;;;1.77;58.92;102720.77;1809395;78;21677;-69
2021/11/10 03:32:20;;;;;;;15.60;10.15;;;;;;;1.77;59.00;102725.55;1809364;79;21051;-69
2021/11/10 03:34:50;;;;;;;17.62;10.13;;;;;;;1.76;59.08;102727.84;1800601;78;21109;-69
2021/11/10 03:37:17;;;;;;;15.48;10.48;;;;;;;1.73;59.30;102731.26;1787659;78;21580;-69
2021/11/10 03:39:45;;;;;;;16.48;10.05;;;;;;;1.75;59.41;102730.64;1806621;79;20983;-69
2021/11/10 03:42:13;;;;;;;15.50;9.53;;;;;;;1.74;59.52;102731.10;1800473;78;21031;-69
2021/11/10 03:44:40;;;;;;;14.60;9.63;;;;;;;1.78;59.58;102727.22;1780337;80;21554;-68
2021/11/10 03:47:08;;;;;;;13.30;7.87;;;;;;;1.83;59.58;102718.88;1787486;78;21176;-69
2021/11/10 03:49:35;;;;;;;15.15;9.75;;;;;;;1.90;59.44;102719.94;1796333;79;20986;-69
2021/11/10 03:52:04;;;;;;;15.98;10.32;;;;;;;1.84;59.42;102718.74;1796195;78;21569;-69
2021/11/10 03:54:31;;;;;;;16.27;11.15;;;;;;;1.76;59.48;102714.67;1790313;78;20991;-69
2021/11/10 03:56:58;;;;;;;17.80;10.93;;;;;;;1.73;59.57;102718.09;1780302;80;21047;-69
2021/11/10 03:59:25;;;;;;;15.60;10.98;;;;;;;1.67;59.71;102714.71;1782142;78;21793;-69
2021/11/10 04:01:52;;;;;;;17.05;10.70;;;;;;;1.68;59.79;102714.58;1780065;80;20996;-69
2021/11/10 04:04:19;;;;;;;17.77;10.43;;;;;;;1.74;59.71;102716.61;1792710;78;20928;-70
2021/11/10 04:06:48;;;;;;;18.70;10.53;;;;;;;1.76;59.72;102716.48;1804300;79;20992;-70
2021/11/10 04:09:16;;;;;;;16.80;10.55;;;;;;;1.73;59.71;102715.45;1782160;79;20968;-70
2021/11/10 04:11:43;;;;;;;20.20;11.35;;;;;;;1.69;59.65;102723.31;1812206;79;21154;-70
2021/11/10 04:14:12;;;;;;;20.17;11.68;;;;;;;1.57;59.59;102726.11;1806600;79;21605;-70
2021/11/10 04:16:42;;;;;;;19.82;11.30;;;;;;;1.50;59.63;102730.78;1804417;79;21573;-70
2021/11/10 04:19:08;;;;;;;19.07;11.70;;;;;;;1.47;59.68;102729.27;1794756;78;20956;-70
2021/11/10 04:21:37;;;;;;;18.52;11.73;;;;;;;1.45;59.67;102730.38;1783841;78;21107;-70
2021/11/10 04:24:05;;;;;;;17.85;10.40;;;;;;;1.42;59.73;102730.69;1780296;80;22305;-70
2021/11/10 04:26:37;;;;;;;20.30;11.63;;;;;;;1.40;59.76;102736.08;1792652;78;21022;-71
2021/11/10 04:29:06;;;;;;;17.73;11.05;;;;;;;1.32;59.86;102742.56;1802545;78;21050;-70
2021/11/10 04:31:33;;;;;;;19.75;10.20;;;;;;;1.23;59.99;102738.96;1797056;78;21027;-71
2021/11/10 04:34:00;;;;;;;17.32;10.85;;;;;;;1.14;60.12;102740.62;1811532;79;21031;-70
2021/11/10 04:36:29;;;;;;;18.80;10.95;;;;;;;1.09;60.22;102744.19;1802841;78;21502;-70
2021/11/10 04:38:56;;;;;;;19.10;11.33;;;;;;;1.04;60.33;102743.76;1795677;79;20948;-70
2021/11/10 04:41:25;;;;;;;20.25;12.07;;;;;;;1.02;60.37;102739.59;1781344;78;21003;-70
2021/11/10 04:43:53;;;;;;;19.98;11.45;;;;;;;0.96;60.47;102741.02;1780299;80;21051;-70
2021/11/10 04:48:52;;;;;;;18.87;11.53;;;;;;;0.88;60.71;102736.92;1794138;79;21721;-70
2021/11/10 04:51:23;;;;;;;19.90;11.80;;;;;;;0.81;60.84;102735.33;1794913;78;21042;-70
2021/11/10 04:53:49;;;;;;;19.40;11.20;;;;;;;0.81;60.93;102730.55;1786416;78;21058;-70
2021/11/10 04:56:16;;;;;;;18.57;10.80;;;;;;;0.79;60.94;102724.59;1749736;80;21011;-70
2021/11/10 04:58:43;;;;;;;18.57;10.88;;;;;;;0.80;60.96;102732.85;1790532;79;20974;-70
2021/11/10 05:01:15;;;;;;;21.07;11.50;;;;;;;0.74;61.05;102728.97;1805830;78;21850;-70
2021/11/10 05:03:39;;;;;;;18.32;11.43;;;;;;;0.66;61.19;102730.16;1803207;79;21000;-71
2021/11/10 05:06:07;;;;;;;18.82;11.33;;;;;;;0.60;61.31;102736.79;1809887;78;21007;-71
2021/11/10 05:08:35;;;;;;;18.90;11.12;;;;;;;0.64;61.43;102732.08;1751582;79;20996;-69
2021/11/10 05:11:03;;;;;;;19.00;10.95;;;;;;;0.67;61.46;102725.23;1808989;78;21058;-69
2021/11/10 05:13:30;;;;;;;19.48;11.08;;;;;;;0.68;61.56;102729.02;1805670;78;21120;-69
2021/11/10 05:15:58;;;;;;;19.10;11.00;;;;;;;0.76;61.48;102732.76;1805400;79;21074;-69
2021/11/10 05:18:25;;;;;;;21.70;11.50;;;;;;;0.79;61.42;102738.59;1780194;80;20952;-69
2021/11/10 05:20:52;;;;;;;19.95;10.65;;;;;;;0.78;61.35;102740.04;1781079;79;21035;-70
2021/11/10 05:23:20;;;;;;;19.98;12.03;;;;;;;0.78;61.34;102739.55;1783936;78;21008;-69
2021/11/10 05:25:48;;;;;;;21.02;12.28;;;;;;;0.76;61.32;102740.65;1780256;80;21266;-69
2021/11/10 05:28:15;;;;;;;22.75;12.90;;;;;;;0.73;61.34;102735.69;1781057;79;21059;-69
2021/11/10 05:30:42;;;;;;;20.82;11.83;;;;;;;0.72;61.32;102753.25;1792969;79;21087;-69
2021/11/10 05:33:09;;;;;;;21.20;12.07;;;;;;;0.73;61.35;102760.19;1796497;78;20971;-70
2021/11/10 05:35:36;;;;;;;25.02;13.95;;;;;;;0.78;61.35;102764.54;1795228;78;20986;-70
2021/11/10 05:38:03;;;;;;;23.70;13.25;;;;;;;0.85;61.29;102773.53;1787013;78;21776;-70
2021/11/10 05:40:30;;;;;;;27.00;15.48;;;;;;;0.92;61.19;102775.98;1796130;79;20943;-69
2021/11/10 05:42:57;;;;;;;25.62;13.65;;;;;;;0.95;61.13;102778.80;1791651;79;20972;-70
2021/11/10 05:45:24;;;;;;;25.23;13.38;;;;;;;0.98;61.15;102781.64;1781024;79;21606;-70
2021/11/10 05:47:50;;;;;;;26.57;15.53;;;;;;;0.96;61.24;102781.80;1801634;78;20940;-70
2021/11/10 05:50:17;;;;;;;20.30;13.30;;;;;;;0.92;61.37;102784.34;1801083;79;21130;-70
2021/11/10 05:52:45;;;;;;;22.52;13.55;;;;;;;0.88;61.58;102786.42;1811107;78;21553;-70
2021/11/10 05:55:14;;;;;;;22.52;13.62;;;;;;;0.93;61.71;102786.02;1806293;79;21497;-69
2021/11/10 05:57:42;;;;;;;23.60;13.75;;;;;;;0.98;61.81;102796.12;1803799;78;21070;-69
2021/11/10 06:00:12;;;;;;;22.75;13.70;;;;;;;1.01;61.92;102792.72;1802793;78;21051;-68
2021/11/10 06:02:42;;;;;;;20.65;11.88;;;;;;;1.13;61.98;102797.38;1804490;79;21096;-70
2021/11/10 06:05:09;;;;;;;19.70;10.72;;;;;;;1.28;61.82;102792.00;1795083;78;21083;-69
2021/11/10 06:07:36;;;;;;;19.95;11.45;;;;;;;1.33;61.73;102793.74;1780208;80;21027;-70
2021/11/10 06:10:06;;;;;;;17.85;11.57;;;;;;;1.42;61.61;102796.03;1783171;78;21039;-70
2021/11/10 06:12:33;;;;;;;21.10;13.20;;;;;;;1.49;61.40;102801.06;1795957;79;21108;-70
2021/11/10 06:15:02;;;;;;;22.30;13.75;;;;;;;1.54;61.38;102812.48;1809542;78;21011;-69
2021/11/10 06:17:29;;;;;;;25.35;14.15;;;;;;;1.63;61.35;102812.95;1808644;79;21078;-69
2021/11/10 06:19:55;;;;;;;19.67;12.63;;;;;;;1.69;61.23;102804.98;1812281;79;20952;-70
2021/11/10 06:22:23;;;;;;;18.52;11.75;;;;;;;1.72;61.35;102812.59;1796683;79;20986;-70
2021/11/10 06:24:50;;;;;;;18.20;11.93;;;;;;;1.82;61.24;102806.31;1796477;79;21054;-69
2021/11/10 06:27:16;;;;;;;20.27;12.90;;;;;;;1.97;61.17;102810.62;1796867;78;21143;-70
2021/11/10 06:29:44;;;;;;;20.68;12.03;;;;;;;2.13;61.01;102798.63;1805870;79;21000;-70
2021/11/10 06:32:11;;;;;;;17.35;11.63;;;;;;;2.34;60.82;102798.74;1791061;78;20944;-70
2021/11/10 06:34:37;;;;;;;19.52;12.00;;;;;;;2.50;60.41;102792.83;1801531;78;20987;-69
2021/11/10 06:37:05;;;;;;;18.20;11.95;;;;;;;2.65;60.23;102793.63;1804383;78;21513;-70
2021/11/10 06:39:31;;;;;;;16.50;11.03;;;;;;;2.82;60.14;102794.11;1785621;78;21166;-70
2021/11/10 06:41:58;;;;;;;19.82;11.95;;;;;;;2.96;59.71;102788.33;1791926;78;20924;-70
2021/11/10 06:44:24;;;;;;;19.48;12.30;;;;;;;3.04;59.33;102788.87;1799637;78;21502;-70
2021/11/10 06:46:51;;;;;;;17.62;10.80;;;;;;;3.14;59.28;102779.55;1780293;80;21090;-70
2021/11/10 06:49:17;;;;;;;18.67;10.93;;;;;;;3.35;59.09;102774.74;1780597;79;21106;-70
2021/11/10 06:51:44;;;;;;;18.00;10.40;;;;;;;3.52;58.73;102779.17;1802922;79;21105;-69
2021/11/10 06:54:13;;;;;;;14.68;10.15;;;;;;;3.65;58.47;102779.23;1812289;79;21082;-70
2021/11/10 06:56:39;;;;;;;15.32;10.18;;;;;;;3.78;58.21;102768.23;1804130;78;20939;-70
2021/11/10 06:59:06;;;;;;;16.57;10.32;;;;;;;3.94;57.79;102772.28;1804334;79;20983;-70
2021/11/10 07:01:32;;;;;;;16.15;10.90;;;;;;;4.00;57.13;102779.08;1803687;79;21007;-70
2021/11/10 07:04:00;;;;;;;16.93;10.18;;;;;;;4.06;57.05;102790.85;1804463;79;21038;-70
2021/11/10 07:06:27;;;;;;;16.10;10.60;;;;;;;4.15;57.00;102780.64;1803740;78;21668;-70
2021/11/10 07:08:54;;;;;;;14.95;10.40;;;;;;;4.26;56.62;102778.70;1804261;79;21419;-70
2021/11/10 07:11:21;;;;;;;15.95;11.05;;;;;;;4.30;56.27;102784.81;1800871;78;21079;-70
2021/11/10 07:13:49;;;;;;;17.82;10.70;;;;;;;4.33;55.88;102776.56;1796533;78;21033;-70
2021/11/10 07:16:17;;;;;;;15.72;10.58;;;;;;;4.32;55.92;102772.27;1796330;78;20986;-69
2021/11/10 07:18:45;;;;;;;17.90;10.13;;;;;;;4.40;55.83;102773.59;1796334;79;21599;-70
2021/11/10 07:21:11;;;;;;;15.90;10.20;;;;;;;4.45;55.56;102769.98;1796989;79;21013;-70
2021/11/10 07:23:39;;;;;;;15.05;9.30;;;;;;;4.50;55.39;102766.02;1784499;78;21487;-70
2021/11/10 07:26:05;;;;;;;14.75;10.38;;;;;;;4.56;55.48;102766.20;1781288;79;20936;-70
2021/11/10 07:28:32;;;;;;;14.25;10.18;;;;;;;4.57;55.28;102766.52;1802231;79;21153;-70
2021/11/10 07:30:59;;;;;;;14.70;9.70;;;;;;;4.48;54.98;102770.66;1809387;79;21023;-70
2021/11/10 07:33:26;;;;;;;14.98;9.33;;;;;;;4.41;55.08;102777.92;1804323;79;20987;-70
2021/11/10 07:35:53;;;;;;;13.45;8.53;;;;;;;4.37;55.37;102763.83;1803977;78;21039;-70
2021/11/10 07:38:24;;;;;;;11.57;7.85;;;;;;;4.41;55.36;102760.72;1804339;79;21035;-69
2021/11/10 07:40:48;;;;;;;12.30;8.23;;;;;;;4.51;55.37;102751.78;1804078;79;21095;-69
2021/11/10 07:43:16;;;;;;;11.03;7.30;;;;;;;4.64;55.31;102762.26;1795003;78;21041;-70
2021/11/10 07:45:50;;;;;;;12.18;7.30;;;;;;;4.78;54.88;102765.25;1796547;79;21095;-70
2021/11/10 07:48:12;;;;;;;11.35;8.08;;;;;;;4.67;54.37;102766.38;1809231;79;21051;-69
2021/11/10 07:50:39;;;;;;;12.45;7.78;;;;;;;4.48;54.54;102764.05;1737124;80;21434;-69
2021/11/10 07:53:06;;;;;;;9.63;6.05;;;;;;;4.49;54.93;102748.49;1781639;79;21176;-70
2021/11/10 07:55:34;;;;;;;12.10;7.35;;;;;;;4.67;55.03;102747.38;1783866;78;20992;-69
2021/11/10 07:58:01;;;;;;;12.10;7.62;;;;;;;4.85;54.75;102738.44;1804240;79;20952;-70
2021/11/10 08:00:29;;;;;;;12.15;7.62;;;;;;;5.01;54.57;102748.21;1789039;78;21074;-69
2021/11/10 08:02:57;;;;;;;12.40;7.50;;;;;;;5.13;54.25;102754.34;1781977;79;21407;-70
2021/11/10 08:05:24;;;;;;;9.25;6.22;;;;;;;5.25;53.94;102756.13;1801971;78;21130;-70
2021/11/10 08:07:51;;;;;;;9.60;5.80;;;;;;;5.39;53.80;102749.31;1800907;78;21616;-70
2021/11/10 08:10:17;;;;;;;10.32;6.15;;;;;;;5.59;53.48;102756.39;1781127;79;20976;-68
2021/11/10 08:12:46;;;;;;;10.50;5.85;;;;;;;5.72;52.59;102757.19;1780295;79;21054;-69
2021/11/10 08:15:12;;;;;;;9.63;6.22;;;;;;;5.73;52.09;102754.88;1801853;78;21043;-69
2021/11/10 08:17:39;;;;;;;8.78;5.17;;;;;;;5.80;52.08;102755.34;1812221;79;21114;-69
2021/11/10 08:20:12;;;;;;;8.20;5.60;;;;;;;5.94;51.84;102764.44;1789125;79;20975;-69
2021/11/10 08:22:42;;;;;;;10.63;6.62;;;;;;;5.88;50.99;102768.56;1780205;80;21463;-69
2021/11/10 08:25:09;;;;;;;9.40;5.65;;;;;;;5.73;50.70;102764.98;1784490;78;20968;-68
2021/11/10 08:27:36;;;;;;;9.23;5.70;;;;;;;5.65;50.69;102764.99;1808748;79;20952;-69
2021/11/10 08:30:08;;;;;;;9.90;5.90;;;;;;;5.53;50.28;102769.02;1807003;79;21034;-68
2021/11/10 08:32:35;;;;;;;9.48;5.70;;;;;;;5.46;50.69;102763.53;1801935;79;21564;-69
2021/11/10 08:35:02;;;;;;;9.63;6.00;;;;;;;5.43;50.53;102763.91;1804561;79;21070;-70
2021/11/10 08:37:31;;;;;;;9.95;6.45;;;;;;;5.33;50.48;102757.92;1789009;79;21173;-69
2021/11/10 08:39:58;;;;;;;10.03;6.30;;;;;;;5.31;50.50;102769.21;1785325;79;20959;-69
2021/11/10 08:42:29;;;;;;;9.68;6.10;;;;;;;5.32;50.77;102770.86;1781369;79;21070;-69
2021/11/10 08:44:53;;;;;;;9.45;6.22;;;;;;;5.39;50.56;102777.95;1793086;78;20976;-70
2021/11/10 08:47:22;;;;;;;10.50;5.72;;;;;;;5.43;50.37;102781.59;1806561;79;20952;-69
2021/11/10 08:49:49;;;;;;;10.93;6.60;;;;;;;5.45;50.46;102777.80;1804594;78;20952;-70
2021/11/10 08:52:15;;;;;;;7.15;4.72;;;;;;;5.58;50.50;102774.63;1803911;78;21466;-69
2021/11/10 08:54:43;;;;;;;7.37;5.05;;;;;;;5.62;49.08;102774.11;1804574;79;21080;-69
2021/11/10 08:57:09;;;;;;;7.08;4.25;;;;;;;5.65;48.84;102765.81;1811199;79;21032;-70
2021/11/10 08:59:37;;;;;;;7.40;4.53;;;;;;;5.67;48.32;102766.16;1806761;79;21624;-70
2021/11/10 09:02:05;;;;;;;8.23;5.30;;;;;;;5.69;48.00;102761.50;1810755;79;20960;-70
2021/11/10 09:04:32;;;;;;;8.33;4.50;;;;;;;5.68;47.87;102754.05;1809119;78;21018;-69
2021/11/10 09:06:58;;;;;;;6.72;4.15;;;;;;;5.74;48.13;102759.17;1804357;79;21652;-70
2021/11/10 09:09:25;;;;;;;6.87;4.30;;;;;;;5.87;48.04;102762.11;1804178;79;20999;-70
2021/11/10 09:11:51;;;;;;;8.00;4.10;;;;;;;6.00;47.82;102755.80;1797756;78;21482;-70
2021/11/10 09:14:20;;;;;;;7.12;3.42;;;;;;;6.15;47.19;102750.57;1804212;79;21415;-70
2021/11/10 09:16:47;;;;;;;6.65;3.67;;;;;;;6.29;46.47;102735.25;1787901;78;21617;-70
2021/11/10 09:19:14;;;;;;;7.15;4.33;;;;;;;6.44;46.22;102735.81;1808025;78;21768;-70
2021/11/10 09:21:42;;;;;;;7.17;3.85;;;;;;;6.54;46.08;102742.55;1790798;78;21035;-71
2021/11/10 09:24:10;;;;;;;7.83;3.95;;;;;;;6.65;45.46;102741.33;1781735;79;21039;-70
2021/11/10 09:26:39;;;;;;;6.78;4.22;;;;;;;6.71;45.41;102737.12;1811234;79;22195;-70
2021/11/10 09:29:08;;;;;;;6.12;4.03;;;;;;;6.75;45.32;102733.95;1782645;78;21139;-70
2021/11/10 09:31:36;;;;;;;6.53;3.98;;;;;;;6.80;45.28;102731.56;1783506;78;21135;-69
2021/11/10 09:34:08;;;;;;;6.15;4.00;;;;;;;6.84;44.68;102726.72;1780330;79;20967;-70
2021/11/10 09:48:58;;;;;;;6.73;4.40;;;;;;;7.52;42.59;102708.96;1800932;78;22771;-70
2021/11/10 09:51:26;;;;;;;7.08;4.20;;;;;;;7.56;43.24;102708.91;1823942;78;21039;-71
2021/11/10 09:53:52;;;;;;;7.65;4.60;;;;;;;7.74;43.33;102718.67;1816395;78;21135;-72
2021/11/10 09:56:24;;;;;;;8.28;4.92;;;;;;;7.93;42.84;102716.43;1748670;81;20909;-69
2021/11/10 09:58:51;;;;;;;7.80;4.55;;;;;;;8.02;42.55;102713.17;1778417;79;21001;-70
2021/11/10 10:01:18;;;;;;;7.75;4.87;;;;;;;8.14;42.50;102719.16;1816919;78;21058;-70
2021/11/10 10:03:46;;;;;;;8.63;4.67;;;;;;;8.11;41.06;102720.86;1768196;80;21088;-69
2021/11/10 10:06:14;;;;;;;8.18;4.87;;;;;;;8.00;41.85;102718.69;1782352;79;21121;-71
2021/11/10 10:08:46;;;;;;;8.28;5.08;;;;;;;8.12;42.18;102717.17;1795794;78;21101;-70
2021/11/10 10:11:14;;;;;;;8.63;4.87;;;;;;;8.21;41.42;102716.05;1769379;79;21166;-70
2021/11/10 10:13:41;;;;;;;6.40;4.53;;;;;;;8.29;41.23;102717.80;1803300;77;21035;-69
2021/11/10 10:16:08;;;;;;;8.33;4.67;;;;;;;8.35;40.97;102722.85;1790894;77;21129;-70
2021/11/10 10:18:35;;;;;;;6.90;4.60;;;;;;;8.35;41.09;102720.19;1765134;79;21210;-70
2021/11/10 10:21:07;;;;;;;7.25;4.87;;;;;;;8.43;40.88;102721.45;1794703;80;21932;-70
2021/11/10 10:23:44;;;;;;;6.75;4.35;;;;;;;8.62;40.40;102724.82;1820824;77;20964;-71
2021/11/10 10:26:21;;;;;;;8.98;5.15;;;;;;;8.80;39.77;102717.69;1762504;79;21509;-69
2021/11/10 10:28:55;;;;;;;7.35;4.67;;;;;;;8.91;39.25;102713.16;1795172;78;21126;-70
2021/11/10 10:31:25;;;;;;;9.25;4.08;;;;;;;8.97;38.14;102716.91;1795776;79;21156;-71
2021/11/10 10:33:57;;;;;;;7.12;4.00;;;;;;;8.92;37.19;102704.68;1814415;79;20983;-70
2021/11/10 10:36:27;;;;;;;5.97;3.87;;;;;;;8.81;37.54;102706.00;1812009;78;21699;-70
2021/11/10 10:38:57;;;;;;;7.85;4.25;;;;;;;8.78;37.89;102706.90;1717582;81;21044;-70
2021/11/10 10:41:30;;;;;;;8.95;4.25;;;;;;;8.79;38.01;102700.58;1731402;81;21198;-71
2021/11/10 10:43:59;;;;;;;6.05;3.85;;;;;;;8.83;37.46;102701.83;1758991;81;21139;-70
2021/11/10 10:46:30;;;;;;;8.50;4.60;;;;;;;8.79;38.11;102697.40;1706267;82;21264;-71
2021/11/10 10:49:32;;;;;;;9.70;4.80;;;;;;;8.79;37.91;102702.73;1755467;79;21457;-71
2021/11/10 10:52:14;;;;;;;5.87;3.70;;;;;;;8.88;38.64;102698.06;1715647;81;21105;-69
2021/11/10 10:54:42;;;;;;;6.85;4.25;;;;;;;9.05;37.60;102689.27;1761037;81;21047;-71
2021/11/10 10:57:10;;;;;;;7.62;4.25;;;;;;;9.02;37.39;102687.02;1759740;80;21085;-68
2021/11/10 10:59:37;;;;;;;6.12;3.45;;;;;;;9.08;37.62;102683.55;1716430;82;21054;-70
2021/11/10 11:02:04;;;;;;;6.55;4.10;;;;;;;9.21;37.25;102678.81;1731578;82;21093;-70
2021/11/10 11:04:32;;;;;;;6.22;4.50;;;;;;;9.27;36.89;102676.70;1786686;79;21019;-70
2021/11/10 11:07:04;;;;;;;7.03;4.80;;;;;;;9.30;37.44;102682.98;1737144;82;21088;-71
2021/11/10 11:09:37;;;;;;;8.28;4.70;;;;;;;9.36;37.78;102672.87;1784216;80;20971;-70
2021/11/10 11:12:26;;;;;;;7.37;4.47;;;;;;;9.39;37.92;102676.48;1781503;79;21082;-70
2021/11/10 11:15:36;;;;;;;7.30;4.40;;;;;;;9.47;37.67;102676.30;1705691;84;21524;-69
2021/11/10 11:17:56;;;;;;;6.97;4.58;;;;;;;9.55;37.62;102673.48;1711175;81;21601;-71
2021/11/10 11:20:32;;;;;;;7.62;4.58;;;;;;;9.57;37.53;102675.94;1745232;80;21042;-72
2021/11/10 11:23:00;;;;;;;7.62;4.30;;;;;;;9.58;37.62;102675.76;1743249;79;21140;-70
2021/11/10 11:25:36;;;;;;;6.72;4.67;;;;;;;9.53;37.55;102670.17;1738160;81;21127;-71
2021/11/10 11:28:16;;;;;;;8.05;4.67;;;;;;;9.44;37.78;102670.02;1785005;79;21546;-70
2021/11/10 11:30:44;;;;;;;6.72;4.28;;;;;;;9.40;37.87;102666.11;1784945;79;21043;-70
2021/11/10 11:33:15;;;;;;;7.30;4.10;;;;;;;9.45;37.63;102665.54;1730543;80;21074;-72
2021/11/10 11:35:51;;;;;;;7.60;4.28;;;;;;;9.48;37.62;102655.81;1780393;78;21133;-70
2021/11/10 11:38:25;;;;;;;7.10;3.90;;;;;;;9.48;37.38;102657.96;1755038;79;21007;-70
2021/11/10 11:40:55;;;;;;;6.40;3.37;;;;;;;9.44;37.26;102662.02;1776629;79;21566;-70
2021/11/10 11:43:26;;;;;;;6.90;4.20;;;;;;;9.44;36.86;102663.36;1727743;81;21557;-70
2021/11/10 11:45:55;;;;;;;6.83;3.67;;;;;;;9.49;36.46;102657.45;1734677;81;21020;-70